sensor_id;sensor_type;location;lat;lon;timestamp;P1;durP1;ratioP1;P2;durP2;ratioP2
43817;SDS011;29868;47.360;18.984;2022-07-24T00:01:36;12.35;;;10.07;;
43817;SDS011;29868;47.360;18.984;2022-07-24T00:04:02;11.88;;;9.68;;
43817;SDS011;29868;47.360;18.984;2022-07-24T00:06:28;11.75;;;9.65;;
43817;SDS011;29868;47.360;18.984;2022-07-24T00:08:54;12.25;;;9.15;;
43817;SDS011;29868;47.360;18.984;2022-07-24T00:11:19;11.00;;;9.15;;
43817;SDS011;29868;47.360;18.984;2022-07-24T00:13:44;11.05;;;9.18;;
43817;SDS011;29868;47.360;18.984;2022-07-24T00:16:10;12.73;;;9.25;;
43817;SDS011;29868;47.360;18.984;2022-07-24T00:18:35;11.43;;;9.55;;
43817;SDS011;29868;47.360;18.984;2022-07-24T00:21:01;14.65;;;9.82;;
43817;SDS011;29868;47.360;18.984;2022-07-24T00:23:26;11.20;;;9.35;;
43817;SDS011;29868;47.360;18.984;2022-07-24T00:25:52;12.70;;;9.32;;
43817;SDS011;29868;47.360;18.984;2022-07-24T00:28:18;12.38;;;9.43;;
43817;SDS011;29868;47.360;18.984;2022-07-24T00:30:44;13.95;;;9.90;;
43817;SDS011;29868;47.360;18.984;2022-07-24T00:33:10;12.02;;;10.10;;
43817;SDS011;29868;47.360;18.984;2022-07-24T00:35:35;14.13;;;10.05;;
43817;SDS011;29868;47.360;18.984;2022-07-24T00:38:01;15.93;;;9.45;;
43817;SDS011;29868;47.360;18.984;2022-07-24T00:40:27;11.63;;;8.60;;
43817;SDS011;29868;47.360;18.984;2022-07-24T00:42:52;12.13;;;8.45;;
43817;SDS011;29868;47.360;18.984;2022-07-24T00:45:18;12.40;;;8.88;;
43817;SDS011;29868;47.360;18.984;2022-07-24T00:47:43;10.43;;;8.38;;
43817;SDS011;29868;47.360;18.984;2022-07-24T00:50:09;11.27;;;7.85;;
43817;SDS011;29868;47.360;18.984;2022-07-24T00:52:35;11.38;;;7.80;;
43817;SDS011;29868;47.360;18.984;2022-07-24T00:55:01;10.30;;;7.82;;
43817;SDS011;29868;47.360;18.984;2022-07-24T00:57:28;9.25;;;7.18;;
43817;SDS011;29868;47.360;18.984;2022-07-24T00:59:53;9.40;;;7.25;;
43817;SDS011;29868;47.360;18.984;2022-07-24T01:02:18;8.63;;;6.65;;
43817;SDS011;29868;47.360;18.984;2022-07-24T01:04:44;7.75;;;6.35;;
43817;SDS011;29868;47.360;18.984;2022-07-24T01:07:09;9.38;;;6.95;;
43817;SDS011;29868;47.360;18.984;2022-07-24T01:09:36;10.75;;;7.22;;
43817;SDS011;29868;47.360;18.984;2022-07-24T01:12:02;10.45;;;7.22;;
43817;SDS011;29868;47.360;18.984;2022-07-24T01:14:28;10.63;;;7.25;;
43817;SDS011;29868;47.360;18.984;2022-07-24T01:16:56;11.88;;;7.53;;
43817;SDS011;29868;47.360;18.984;2022-07-24T01:19:22;9.02;;;7.40;;
43817;SDS011;29868;47.360;18.984;2022-07-24T01:21:48;11.48;;;7.28;;
43817;SDS011;29868;47.360;18.984;2022-07-24T01:24:14;8.27;;;7.18;;
43817;SDS011;29868;47.360;18.984;2022-07-24T01:26:40;9.02;;;7.38;;
43817;SDS011;29868;47.360;18.984;2022-07-24T01:29:05;9.57;;;7.75;;
43817;SDS011;29868;47.360;18.984;2022-07-24T01:31:31;9.27;;;7.15;;
43817;SDS011;29868;47.360;18.984;2022-07-24T01:33:56;9.95;;;7.43;;
43817;SDS011;29868;47.360;18.984;2022-07-24T01:36:22;8.98;;;7.25;;
43817;SDS011;29868;47.360;18.984;2022-07-24T01:38:47;9.13;;;7.32;;
43817;SDS011;29868;47.360;18.984;2022-07-24T01:41:13;10.15;;;7.13;;
43817;SDS011;29868;47.360;18.984;2022-07-24T01:43:38;10.63;;;6.93;;
43817;SDS011;29868;47.360;18.984;2022-07-24T01:46:04;10.32;;;7.35;;
43817;SDS011;29868;47.360;18.984;2022-07-24T01:48:29;10.98;;;7.18;;
43817;SDS011;29868;47.360;18.984;2022-07-24T01:50:55;9.00;;;6.68;;
43817;SDS011;29868;47.360;18.984;2022-07-24T01:53:20;9.80;;;6.78;;
43817;SDS011;29868;47.360;18.984;2022-07-24T01:55:46;7.88;;;6.22;;
43817;SDS011;29868;47.360;18.984;2022-07-24T01:58:13;8.02;;;5.88;;
43817;SDS011;29868;47.360;18.984;2022-07-24T02:00:39;9.85;;;6.35;;
43817;SDS011;29868;47.360;18.984;2022-07-24T02:03:04;9.38;;;6.38;;
43817;SDS011;29868;47.360;18.984;2022-07-24T02:05:30;6.95;;;6.10;;
43817;SDS011;29868;47.360;18.984;2022-07-24T02:07:57;9.90;;;5.82;;
43817;SDS011;29868;47.360;18.984;2022-07-24T02:10:23;7.38;;;6.07;;
43817;SDS011;29868;47.360;18.984;2022-07-24T02:12:50;7.20;;;5.68;;
43817;SDS011;29868;47.360;18.984;2022-07-24T02:15:15;8.05;;;6.05;;
43817;SDS011;29868;47.360;18.984;2022-07-24T02:17:45;9.48;;;6.28;;
43817;SDS011;29868;47.360;18.984;2022-07-24T02:20:13;7.60;;;6.13;;
43817;SDS011;29868;47.360;18.984;2022-07-24T02:22:39;7.55;;;6.25;;
43817;SDS011;29868;47.360;18.984;2022-07-24T02:25:05;9.77;;;5.95;;
43817;SDS011;29868;47.360;18.984;2022-07-24T02:27:31;8.80;;;6.38;;
43817;SDS011;29868;47.360;18.984;2022-07-24T02:29:56;8.23;;;6.38;;
43817;SDS011;29868;47.360;18.984;2022-07-24T02:32:22;9.60;;;6.50;;
43817;SDS011;29868;47.360;18.984;2022-07-24T02:34:47;9.52;;;6.72;;
43817;SDS011;29868;47.360;18.984;2022-07-24T02:37:13;8.80;;;6.65;;
43817;SDS011;29868;47.360;18.984;2022-07-24T02:39:38;9.57;;;6.63;;
43817;SDS011;29868;47.360;18.984;2022-07-24T02:42:03;10.35;;;6.50;;
43817;SDS011;29868;47.360;18.984;2022-07-24T02:44:29;10.82;;;6.88;;
43817;SDS011;29868;47.360;18.984;2022-07-24T02:46:54;9.07;;;6.38;;
43817;SDS011;29868;47.360;18.984;2022-07-24T02:49:20;9.15;;;6.68;;
43817;SDS011;29868;47.360;18.984;2022-07-24T02:51:45;8.70;;;6.65;;
43817;SDS011;29868;47.360;18.984;2022-07-24T02:54:10;9.60;;;6.88;;
43817;SDS011;29868;47.360;18.984;2022-07-24T02:56:36;9.85;;;7.00;;
43817;SDS011;29868;47.360;18.984;2022-07-24T02:59:01;9.27;;;7.15;;
43817;SDS011;29868;47.360;18.984;2022-07-24T03:01:26;10.00;;;6.80;;
43817;SDS011;29868;47.360;18.984;2022-07-24T03:03:52;9.60;;;7.10;;
43817;SDS011;29868;47.360;18.984;2022-07-24T03:06:17;12.38;;;7.00;;
43817;SDS011;29868;47.360;18.984;2022-07-24T03:08:42;8.63;;;7.13;;
43817;SDS011;29868;47.360;18.984;2022-07-24T03:11:08;11.15;;;6.88;;
43817;SDS011;29868;47.360;18.984;2022-07-24T03:13:33;9.68;;;7.20;;
43817;SDS011;29868;47.360;18.984;2022-07-24T03:15:59;10.57;;;7.00;;
43817;SDS011;29868;47.360;18.984;2022-07-24T03:18:24;11.00;;;7.97;;
43817;SDS011;29868;47.360;18.984;2022-07-24T03:20:49;9.55;;;7.03;;
43817;SDS011;29868;47.360;18.984;2022-07-24T03:23:15;9.95;;;6.78;;
43817;SDS011;29868;47.360;18.984;2022-07-24T03:25:40;9.65;;;6.45;;
43817;SDS011;29868;47.360;18.984;2022-07-24T03:28:06;7.82;;;6.22;;
43817;SDS011;29868;47.360;18.984;2022-07-24T03:30:31;8.05;;;6.30;;
43817;SDS011;29868;47.360;18.984;2022-07-24T03:32:56;8.35;;;6.70;;
43817;SDS011;29868;47.360;18.984;2022-07-24T03:35:21;9.07;;;6.97;;
43817;SDS011;29868;47.360;18.984;2022-07-24T03:37:47;9.00;;;6.47;;
43817;SDS011;29868;47.360;18.984;2022-07-24T03:40:12;9.55;;;6.70;;
43817;SDS011;29868;47.360;18.984;2022-07-24T03:42:38;8.00;;;6.60;;
43817;SDS011;29868;47.360;18.984;2022-07-24T03:45:03;8.07;;;6.38;;
43817;SDS011;29868;47.360;18.984;2022-07-24T03:47:29;11.13;;;6.43;;
43817;SDS011;29868;47.360;18.984;2022-07-24T03:49:55;8.45;;;6.03;;
43817;SDS011;29868;47.360;18.984;2022-07-24T03:52:20;9.23;;;6.47;;
43817;SDS011;29868;47.360;18.984;2022-07-24T03:54:46;8.73;;;6.00;;
43817;SDS011;29868;47.360;18.984;2022-07-24T03:57:11;8.82;;;6.05;;
43817;SDS011;29868;47.360;18.984;2022-07-24T03:59:37;8.98;;;6.00;;
43817;SDS011;29868;47.360;18.984;2022-07-24T04:02:02;7.93;;;6.07;;
43817;SDS011;29868;47.360;18.984;2022-07-24T04:04:28;8.90;;;6.18;;
43817;SDS011;29868;47.360;18.984;2022-07-24T04:06:53;8.85;;;6.20;;
43817;SDS011;29868;47.360;18.984;2022-07-24T04:09:19;10.00;;;6.20;;
43817;SDS011;29868;47.360;18.984;2022-07-24T04:11:44;8.30;;;6.45;;
43817;SDS011;29868;47.360;18.984;2022-07-24T04:14:10;8.18;;;5.97;;
43817;SDS011;29868;47.360;18.984;2022-07-24T04:16:36;7.28;;;6.00;;
43817;SDS011;29868;47.360;18.984;2022-07-24T04:19:02;8.43;;;6.20;;
43817;SDS011;29868;47.360;18.984;2022-07-24T04:21:28;7.10;;;5.97;;
43817;SDS011;29868;47.360;18.984;2022-07-24T04:23:53;7.38;;;6.20;;
43817;SDS011;29868;47.360;18.984;2022-07-24T04:26:19;9.23;;;6.80;;
43817;SDS011;29868;47.360;18.984;2022-07-24T04:28:44;10.35;;;6.47;;
43817;SDS011;29868;47.360;18.984;2022-07-24T04:31:10;8.50;;;6.20;;
43817;SDS011;29868;47.360;18.984;2022-07-24T04:33:35;9.15;;;6.63;;
43817;SDS011;29868;47.360;18.984;2022-07-24T04:36:01;9.25;;;6.80;;
43817;SDS011;29868;47.360;18.984;2022-07-24T04:38:28;7.53;;;6.40;;
43817;SDS011;29868;47.360;18.984;2022-07-24T04:40:53;10.07;;;6.30;;
43817;SDS011;29868;47.360;18.984;2022-07-24T04:43:19;8.80;;;6.28;;
43817;SDS011;29868;47.360;18.984;2022-07-24T04:45:44;9.25;;;6.53;;
43817;SDS011;29868;47.360;18.984;2022-07-24T04:48:10;8.85;;;7.05;;
43817;SDS011;29868;47.360;18.984;2022-07-24T04:50:35;8.40;;;6.93;;
43817;SDS011;29868;47.360;18.984;2022-07-24T04:53:00;9.80;;;6.47;;
43817;SDS011;29868;47.360;18.984;2022-07-24T04:55:26;8.88;;;6.70;;
43817;SDS011;29868;47.360;18.984;2022-07-24T04:57:51;9.65;;;7.20;;
43817;SDS011;29868;47.360;18.984;2022-07-24T05:00:16;9.05;;;6.60;;
43817;SDS011;29868;47.360;18.984;2022-07-24T05:02:42;8.93;;;6.82;;
43817;SDS011;29868;47.360;18.984;2022-07-24T05:05:07;9.25;;;6.75;;
43817;SDS011;29868;47.360;18.984;2022-07-24T05:07:33;10.95;;;6.88;;
43817;SDS011;29868;47.360;18.984;2022-07-24T05:09:59;8.95;;;7.10;;
43817;SDS011;29868;47.360;18.984;2022-07-24T05:12:25;8.75;;;7.18;;
43817;SDS011;29868;47.360;18.984;2022-07-24T05:14:51;10.30;;;7.47;;
43817;SDS011;29868;47.360;18.984;2022-07-24T05:17:16;10.73;;;7.82;;
43817;SDS011;29868;47.360;18.984;2022-07-24T05:19:41;8.68;;;7.05;;
43817;SDS011;29868;47.360;18.984;2022-07-24T05:22:07;9.15;;;6.70;;
43817;SDS011;29868;47.360;18.984;2022-07-24T05:24:32;8.98;;;6.80;;
43817;SDS011;29868;47.360;18.984;2022-07-24T05:26:58;11.40;;;7.65;;
43817;SDS011;29868;47.360;18.984;2022-07-24T05:29:23;10.48;;;7.70;;
43817;SDS011;29868;47.360;18.984;2022-07-24T05:31:49;10.40;;;7.13;;
43817;SDS011;29868;47.360;18.984;2022-07-24T05:34:16;9.02;;;7.45;;
43817;SDS011;29868;47.360;18.984;2022-07-24T05:36:42;8.10;;;7.07;;
43817;SDS011;29868;47.360;18.984;2022-07-24T05:39:07;8.98;;;7.00;;
43817;SDS011;29868;47.360;18.984;2022-07-24T05:41:32;7.93;;;6.82;;
43817;SDS011;29868;47.360;18.984;2022-07-24T05:43:58;11.85;;;8.20;;
43817;SDS011;29868;47.360;18.984;2022-07-24T05:46:23;10.68;;;6.95;;
43817;SDS011;29868;47.360;18.984;2022-07-24T05:48:49;9.65;;;7.03;;
43817;SDS011;29868;47.360;18.984;2022-07-24T05:51:14;8.82;;;7.15;;
43817;SDS011;29868;47.360;18.984;2022-07-24T05:53:40;8.85;;;7.22;;
43817;SDS011;29868;47.360;18.984;2022-07-24T05:56:06;8.70;;;7.47;;
43817;SDS011;29868;47.360;18.984;2022-07-24T05:58:31;9.18;;;7.22;;
43817;SDS011;29868;47.360;18.984;2022-07-24T06:00:57;9.63;;;6.80;;
43817;SDS011;29868;47.360;18.984;2022-07-24T06:03:22;11.13;;;7.93;;
43817;SDS011;29868;47.360;18.984;2022-07-24T06:05:47;10.55;;;7.45;;
43817;SDS011;29868;47.360;18.984;2022-07-24T06:08:13;8.60;;;7.57;;
43817;SDS011;29868;47.360;18.984;2022-07-24T06:10:39;8.95;;;7.60;;
43817;SDS011;29868;47.360;18.984;2022-07-24T06:13:04;8.80;;;7.75;;
43817;SDS011;29868;47.360;18.984;2022-07-24T06:15:30;8.60;;;7.65;;
43817;SDS011;29868;47.360;18.984;2022-07-24T06:17:55;11.02;;;7.72;;
43817;SDS011;29868;47.360;18.984;2022-07-24T06:20:20;8.75;;;7.82;;
43817;SDS011;29868;47.360;18.984;2022-07-24T06:22:46;9.25;;;7.13;;
43817;SDS011;29868;47.360;18.984;2022-07-24T06:25:11;8.52;;;7.50;;
43817;SDS011;29868;47.360;18.984;2022-07-24T06:27:44;12.60;;;7.85;;
43817;SDS011;29868;47.360;18.984;2022-07-24T06:30:15;10.90;;;7.50;;
43817;SDS011;29868;47.360;18.984;2022-07-24T06:32:42;9.43;;;7.78;;
43817;SDS011;29868;47.360;18.984;2022-07-24T06:35:09;9.07;;;7.40;;
43817;SDS011;29868;47.360;18.984;2022-07-24T06:37:35;9.63;;;7.75;;
43817;SDS011;29868;47.360;18.984;2022-07-24T06:40:00;8.45;;;7.55;;
43817;SDS011;29868;47.360;18.984;2022-07-24T06:42:26;9.35;;;7.85;;
43817;SDS011;29868;47.360;18.984;2022-07-24T06:44:51;8.80;;;7.88;;
43817;SDS011;29868;47.360;18.984;2022-07-24T06:47:17;8.23;;;7.43;;
43817;SDS011;29868;47.360;18.984;2022-07-24T06:49:42;9.32;;;8.32;;
43817;SDS011;29868;47.360;18.984;2022-07-24T06:52:07;9.27;;;8.05;;
43817;SDS011;29868;47.360;18.984;2022-07-24T06:54:33;10.63;;;7.93;;
43817;SDS011;29868;47.360;18.984;2022-07-24T06:56:58;9.90;;;8.15;;
43817;SDS011;29868;47.360;18.984;2022-07-24T06:59:24;9.43;;;8.00;;
43817;SDS011;29868;47.360;18.984;2022-07-24T07:01:49;9.00;;;8.00;;
43817;SDS011;29868;47.360;18.984;2022-07-24T07:04:14;10.88;;;8.30;;
43817;SDS011;29868;47.360;18.984;2022-07-24T07:06:40;10.40;;;8.38;;
43817;SDS011;29868;47.360;18.984;2022-07-24T07:09:05;10.30;;;8.65;;
43817;SDS011;29868;47.360;18.984;2022-07-24T07:11:30;9.88;;;8.45;;
43817;SDS011;29868;47.360;18.984;2022-07-24T07:13:56;10.65;;;8.48;;
43817;SDS011;29868;47.360;18.984;2022-07-24T07:16:21;11.93;;;8.73;;
43817;SDS011;29868;47.360;18.984;2022-07-24T07:18:46;9.77;;;8.77;;
43817;SDS011;29868;47.360;18.984;2022-07-24T07:21:12;10.10;;;8.55;;
43817;SDS011;29868;47.360;18.984;2022-07-24T07:23:38;9.20;;;8.18;;
43817;SDS011;29868;47.360;18.984;2022-07-24T07:26:03;10.38;;;8.57;;
43817;SDS011;29868;47.360;18.984;2022-07-24T07:28:29;9.77;;;8.55;;
43817;SDS011;29868;47.360;18.984;2022-07-24T07:30:54;10.05;;;8.98;;
43817;SDS011;29868;47.360;18.984;2022-07-24T07:33:20;10.57;;;8.77;;
43817;SDS011;29868;47.360;18.984;2022-07-24T07:35:45;9.50;;;8.40;;
43817;SDS011;29868;47.360;18.984;2022-07-24T07:38:11;12.63;;;8.98;;
43817;SDS011;29868;47.360;18.984;2022-07-24T07:40:36;9.95;;;8.85;;
43817;SDS011;29868;47.360;18.984;2022-07-24T07:43:01;9.75;;;8.75;;
43817;SDS011;29868;47.360;18.984;2022-07-24T07:45:27;10.30;;;8.30;;
43817;SDS011;29868;47.360;18.984;2022-07-24T07:47:52;9.20;;;8.10;;
43817;SDS011;29868;47.360;18.984;2022-07-24T07:50:18;10.32;;;7.43;;
43817;SDS011;29868;47.360;18.984;2022-07-24T07:52:43;10.48;;;8.13;;
43817;SDS011;29868;47.360;18.984;2022-07-24T07:55:09;9.68;;;8.02;;
43817;SDS011;29868;47.360;18.984;2022-07-24T07:57:34;8.88;;;7.43;;
43817;SDS011;29868;47.360;18.984;2022-07-24T08:00:00;9.45;;;8.18;;
43817;SDS011;29868;47.360;18.984;2022-07-24T08:02:25;8.88;;;7.97;;
43817;SDS011;29868;47.360;18.984;2022-07-24T08:04:51;9.52;;;7.63;;
43817;SDS011;29868;47.360;18.984;2022-07-24T08:07:16;10.27;;;8.07;;
43817;SDS011;29868;47.360;18.984;2022-07-24T08:09:41;8.18;;;7.38;;
43817;SDS011;29868;47.360;18.984;2022-07-24T08:12:07;9.02;;;7.38;;
43817;SDS011;29868;47.360;18.984;2022-07-24T08:14:32;10.18;;;7.82;;
43817;SDS011;29868;47.360;18.984;2022-07-24T08:16:58;8.70;;;7.63;;
43817;SDS011;29868;47.360;18.984;2022-07-24T08:19:23;8.48;;;7.57;;
43817;SDS011;29868;47.360;18.984;2022-07-24T08:21:49;10.15;;;7.97;;
43817;SDS011;29868;47.360;18.984;2022-07-24T08:24:14;8.63;;;7.28;;
43817;SDS011;29868;47.360;18.984;2022-07-24T08:26:45;8.50;;;7.35;;
43817;SDS011;29868;47.360;18.984;2022-07-24T08:29:11;8.98;;;7.22;;
43817;SDS011;29868;47.360;18.984;2022-07-24T08:31:37;9.80;;;7.70;;
43817;SDS011;29868;47.360;18.984;2022-07-24T08:34:02;8.48;;;7.55;;
43817;SDS011;29868;47.360;18.984;2022-07-24T08:36:27;10.30;;;7.85;;
43817;SDS011;29868;47.360;18.984;2022-07-24T08:38:53;9.35;;;7.45;;
43817;SDS011;29868;47.360;18.984;2022-07-24T08:41:18;8.45;;;7.63;;
43817;SDS011;29868;47.360;18.984;2022-07-24T08:43:44;10.48;;;8.02;;
43817;SDS011;29868;47.360;18.984;2022-07-24T08:46:09;10.65;;;8.65;;
43817;SDS011;29868;47.360;18.984;2022-07-24T08:48:41;10.35;;;7.93;;
43817;SDS011;29868;47.360;18.984;2022-07-24T08:51:08;11.13;;;8.77;;
43817;SDS011;29868;47.360;18.984;2022-07-24T08:53:34;11.48;;;8.65;;
43817;SDS011;29868;47.360;18.984;2022-07-24T08:56:00;9.77;;;8.13;;
43817;SDS011;29868;47.360;18.984;2022-07-24T08:58:25;9.55;;;8.30;;
43817;SDS011;29868;47.360;18.984;2022-07-24T09:00:50;10.32;;;8.70;;
43817;SDS011;29868;47.360;18.984;2022-07-24T09:03:16;9.18;;;7.97;;
43817;SDS011;29868;47.360;18.984;2022-07-24T09:05:54;10.10;;;8.52;;
43817;SDS011;29868;47.360;18.984;2022-07-24T09:08:22;10.20;;;8.07;;
43817;SDS011;29868;47.360;18.984;2022-07-24T09:10:57;8.93;;;7.68;;
43817;SDS011;29868;47.360;18.984;2022-07-24T09:13:25;10.95;;;8.40;;
43817;SDS011;29868;47.360;18.984;2022-07-24T09:15:52;8.95;;;7.70;;
43817;SDS011;29868;47.360;18.984;2022-07-24T09:18:30;9.35;;;8.00;;
43817;SDS011;29868;47.360;18.984;2022-07-24T09:20:57;10.05;;;8.05;;
43817;SDS011;29868;47.360;18.984;2022-07-24T09:23:23;9.25;;;7.85;;
43817;SDS011;29868;47.360;18.984;2022-07-24T09:25:52;9.52;;;7.57;;
43817;SDS011;29868;47.360;18.984;2022-07-24T09:28:19;14.43;;;8.93;;
43817;SDS011;29868;47.360;18.984;2022-07-24T09:30:46;9.88;;;8.43;;
43817;SDS011;29868;47.360;18.984;2022-07-24T09:35:39;8.65;;;7.75;;
43817;SDS011;29868;47.360;18.984;2022-07-24T09:38:10;8.00;;;7.20;;
43817;SDS011;29868;47.360;18.984;2022-07-24T09:40:37;9.52;;;8.30;;
43817;SDS011;29868;47.360;18.984;2022-07-24T09:43:21;8.80;;;7.90;;
43817;SDS011;29868;47.360;18.984;2022-07-24T09:48:25;10.73;;;7.43;;
43817;SDS011;29868;47.360;18.984;2022-07-24T09:50:54;8.75;;;7.40;;
43817;SDS011;29868;47.360;18.984;2022-07-24T09:53:22;7.68;;;6.80;;
43817;SDS011;29868;47.360;18.984;2022-07-24T09:55:57;8.57;;;7.00;;
43817;SDS011;29868;47.360;18.984;2022-07-24T09:58:27;7.88;;;7.05;;
43817;SDS011;29868;47.360;18.984;2022-07-24T10:00:55;8.13;;;6.72;;
43817;SDS011;29868;47.360;18.984;2022-07-24T10:03:25;8.82;;;6.78;;
43817;SDS011;29868;47.360;18.984;2022-07-24T10:05:57;9.52;;;6.80;;
43817;SDS011;29868;47.360;18.984;2022-07-24T10:08:24;9.60;;;7.43;;
43817;SDS011;29868;47.360;18.984;2022-07-24T10:10:50;8.10;;;6.88;;
43817;SDS011;29868;47.360;18.984;2022-07-24T10:13:17;8.45;;;7.55;;
43817;SDS011;29868;47.360;18.984;2022-07-24T10:15:52;7.65;;;6.35;;
43817;SDS011;29868;47.360;18.984;2022-07-24T10:18:19;6.90;;;6.20;;
43817;SDS011;29868;47.360;18.984;2022-07-24T10:20:46;8.70;;;6.82;;
43817;SDS011;29868;47.360;18.984;2022-07-24T10:23:23;7.07;;;5.78;;
43817;SDS011;29868;47.360;18.984;2022-07-24T10:26:06;7.88;;;6.10;;
43817;SDS011;29868;47.360;18.984;2022-07-24T10:28:42;7.60;;;6.18;;
43817;SDS011;29868;47.360;18.984;2022-07-24T10:31:09;9.38;;;6.95;;
43817;SDS011;29868;47.360;18.984;2022-07-24T10:33:52;7.72;;;6.85;;
43817;SDS011;29868;47.360;18.984;2022-07-24T10:36:31;10.45;;;7.28;;
43817;SDS011;29868;47.360;18.984;2022-07-24T10:39:03;8.18;;;6.55;;
43817;SDS011;29868;47.360;18.984;2022-07-24T10:41:37;8.43;;;6.40;;
43817;SDS011;29868;47.360;18.984;2022-07-24T10:44:16;6.95;;;6.25;;
43817;SDS011;29868;47.360;18.984;2022-07-24T10:49:33;7.03;;;5.90;;
43817;SDS011;29868;47.360;18.984;2022-07-24T10:51:58;7.97;;;5.68;;
43817;SDS011;29868;47.360;18.984;2022-07-24T10:54:25;7.57;;;6.10;;
43817;SDS011;29868;47.360;18.984;2022-07-24T10:56:50;7.63;;;5.57;;
43817;SDS011;29868;47.360;18.984;2022-07-24T10:59:15;8.15;;;6.43;;
43817;SDS011;29868;47.360;18.984;2022-07-24T11:01:57;7.07;;;6.38;;
43817;SDS011;29868;47.360;18.984;2022-07-24T11:10:50;6.90;;;5.82;;
43817;SDS011;29868;47.360;18.984;2022-07-24T11:18:40;7.40;;;6.50;;
43817;SDS011;29868;47.360;18.984;2022-07-24T11:21:11;10.23;;;6.32;;
43817;SDS011;29868;47.360;18.984;2022-07-24T11:23:37;7.35;;;6.05;;
43817;SDS011;29868;47.360;18.984;2022-07-24T11:29:14;6.13;;;5.40;;
43817;SDS011;29868;47.360;18.984;2022-07-24T11:31:55;6.45;;;5.10;;
43817;SDS011;29868;47.360;18.984;2022-07-24T11:34:22;8.40;;;6.00;;
43817;SDS011;29868;47.360;18.984;2022-07-24T11:36:49;7.63;;;6.18;;
43817;SDS011;29868;47.360;18.984;2022-07-24T11:39:17;6.10;;;5.45;;
43817;SDS011;29868;47.360;18.984;2022-07-24T11:41:46;6.63;;;5.28;;
43817;SDS011;29868;47.360;18.984;2022-07-24T11:44:23;6.50;;;5.72;;
43817;SDS011;29868;47.360;18.984;2022-07-24T11:46:56;6.78;;;5.45;;
43817;SDS011;29868;47.360;18.984;2022-07-24T11:49:25;7.47;;;5.40;;
43817;SDS011;29868;47.360;18.984;2022-07-24T11:51:51;6.93;;;5.45;;
43817;SDS011;29868;47.360;18.984;2022-07-24T11:54:27;5.63;;;4.90;;
43817;SDS011;29868;47.360;18.984;2022-07-24T11:56:55;6.85;;;4.90;;
43817;SDS011;29868;47.360;18.984;2022-07-24T11:59:22;5.53;;;4.93;;
43817;SDS011;29868;47.360;18.984;2022-07-24T12:01:48;5.97;;;5.38;;
43817;SDS011;29868;47.360;18.984;2022-07-24T12:04:14;5.82;;;5.15;;
43817;SDS011;29868;47.360;18.984;2022-07-24T12:06:44;5.63;;;4.55;;
43817;SDS011;29868;47.360;18.984;2022-07-24T12:09:10;5.82;;;4.97;;
43817;SDS011;29868;47.360;18.984;2022-07-24T12:11:35;4.97;;;4.47;;
43817;SDS011;29868;47.360;18.984;2022-07-24T12:14:01;6.18;;;5.03;;
43817;SDS011;29868;47.360;18.984;2022-07-24T12:16:27;6.15;;;4.50;;
43817;SDS011;29868;47.360;18.984;2022-07-24T12:19:14;6.55;;;4.60;;
43817;SDS011;29868;47.360;18.984;2022-07-24T12:21:45;5.25;;;4.53;;
43817;SDS011;29868;47.360;18.984;2022-07-24T12:24:11;5.82;;;4.63;;
43817;SDS011;29868;47.360;18.984;2022-07-24T12:26:50;5.10;;;4.60;;
43817;SDS011;29868;47.360;18.984;2022-07-24T12:29:20;4.95;;;4.15;;
43817;SDS011;29868;47.360;18.984;2022-07-24T12:31:46;5.38;;;3.90;;
43817;SDS011;29868;47.360;18.984;2022-07-24T12:34:12;5.38;;;3.75;;
43817;SDS011;29868;47.360;18.984;2022-07-24T12:36:38;5.20;;;3.58;;
43817;SDS011;29868;47.360;18.984;2022-07-24T12:39:05;4.80;;;3.22;;
43817;SDS011;29868;47.360;18.984;2022-07-24T12:41:40;4.43;;;3.30;;
43817;SDS011;29868;47.360;18.984;2022-07-24T12:44:07;4.30;;;3.47;;
43817;SDS011;29868;47.360;18.984;2022-07-24T12:49:05;4.57;;;3.70;;
43817;SDS011;29868;47.360;18.984;2022-07-24T12:54:28;5.95;;;4.05;;
43817;SDS011;29868;47.360;18.984;2022-07-24T12:57:19;5.22;;;3.55;;
43817;SDS011;29868;47.360;18.984;2022-07-24T12:59:47;4.90;;;3.65;;
43817;SDS011;29868;47.360;18.984;2022-07-24T13:02:21;4.60;;;3.72;;
43817;SDS011;29868;47.360;18.984;2022-07-24T13:04:51;4.55;;;3.35;;
43817;SDS011;29868;47.360;18.984;2022-07-24T13:07:19;5.70;;;3.72;;
43817;SDS011;29868;47.360;18.984;2022-07-24T13:09:46;4.65;;;3.60;;
43817;SDS011;29868;47.360;18.984;2022-07-24T13:12:12;5.40;;;3.50;;
43817;SDS011;29868;47.360;18.984;2022-07-24T13:14:38;4.13;;;3.28;;
43817;SDS011;29868;47.360;18.984;2022-07-24T13:17:04;4.30;;;3.30;;
43817;SDS011;29868;47.360;18.984;2022-07-24T13:19:34;4.45;;;3.30;;
43817;SDS011;29868;47.360;18.984;2022-07-24T13:22:00;4.47;;;3.40;;
43817;SDS011;29868;47.360;18.984;2022-07-24T13:24:25;4.05;;;3.10;;
43817;SDS011;29868;47.360;18.984;2022-07-24T13:26:51;3.97;;;3.38;;
43817;SDS011;29868;47.360;18.984;2022-07-24T13:29:17;4.90;;;3.60;;
43817;SDS011;29868;47.360;18.984;2022-07-24T13:31:42;4.82;;;3.42;;
43817;SDS011;29868;47.360;18.984;2022-07-24T13:34:09;3.92;;;3.30;;
43817;SDS011;29868;47.360;18.984;2022-07-24T13:36:35;4.80;;;3.20;;
43817;SDS011;29868;47.360;18.984;2022-07-24T13:39:02;4.05;;;3.28;;
43817;SDS011;29868;47.360;18.984;2022-07-24T13:41:32;3.83;;;3.22;;
43817;SDS011;29868;47.360;18.984;2022-07-24T13:43:58;4.15;;;3.38;;
43817;SDS011;29868;47.360;18.984;2022-07-24T13:46:23;3.92;;;3.33;;
43817;SDS011;29868;47.360;18.984;2022-07-24T13:48:49;5.82;;;3.65;;
43817;SDS011;29868;47.360;18.984;2022-07-24T13:51:15;5.45;;;3.20;;
43817;SDS011;29868;47.360;18.984;2022-07-24T13:53:40;4.72;;;3.50;;
43817;SDS011;29868;47.360;18.984;2022-07-24T13:56:09;5.95;;;3.40;;
43817;SDS011;29868;47.360;18.984;2022-07-24T13:58:36;3.67;;;2.90;;
43817;SDS011;29868;47.360;18.984;2022-07-24T14:01:03;3.90;;;2.90;;
43817;SDS011;29868;47.360;18.984;2022-07-24T14:03:29;3.70;;;2.85;;
43817;SDS011;29868;47.360;18.984;2022-07-24T14:05:55;4.10;;;3.15;;
43817;SDS011;29868;47.360;18.984;2022-07-24T14:08:20;4.05;;;2.95;;
43817;SDS011;29868;47.360;18.984;2022-07-24T14:10:45;4.00;;;3.13;;
43817;SDS011;29868;47.360;18.984;2022-07-24T14:13:11;3.63;;;3.03;;
43817;SDS011;29868;47.360;18.984;2022-07-24T14:15:36;4.43;;;3.20;;
43817;SDS011;29868;47.360;18.984;2022-07-24T14:18:02;4.10;;;2.70;;
43817;SDS011;29868;47.360;18.984;2022-07-24T14:20:28;3.35;;;2.58;;
43817;SDS011;29868;47.360;18.984;2022-07-24T14:22:53;4.57;;;2.88;;
43817;SDS011;29868;47.360;18.984;2022-07-24T14:25:19;4.18;;;3.22;;
43817;SDS011;29868;47.360;18.984;2022-07-24T14:27:44;3.70;;;2.83;;
43817;SDS011;29868;47.360;18.984;2022-07-24T14:30:10;4.47;;;3.20;;
43817;SDS011;29868;47.360;18.984;2022-07-24T14:32:35;4.10;;;2.92;;
43817;SDS011;29868;47.360;18.984;2022-07-24T14:35:01;3.75;;;2.85;;
43817;SDS011;29868;47.360;18.984;2022-07-24T14:37:31;5.53;;;2.65;;
43817;SDS011;29868;47.360;18.984;2022-07-24T14:39:58;3.95;;;2.63;;
43817;SDS011;29868;47.360;18.984;2022-07-24T14:42:23;3.72;;;2.90;;
43817;SDS011;29868;47.360;18.984;2022-07-24T14:44:49;5.15;;;2.60;;
43817;SDS011;29868;47.360;18.984;2022-07-24T14:47:14;3.40;;;2.70;;
43817;SDS011;29868;47.360;18.984;2022-07-24T14:49:40;6.00;;;2.60;;
43817;SDS011;29868;47.360;18.984;2022-07-24T14:52:05;3.58;;;2.65;;
43817;SDS011;29868;47.360;18.984;2022-07-24T14:54:30;3.50;;;2.83;;
43817;SDS011;29868;47.360;18.984;2022-07-24T14:56:56;4.10;;;2.67;;